sensor_id;sensor_type;location;lat;lon;timestamp;temperature;humidity
57058;DHT22;55017;52.848;6.748;2023-05-19T00:02:14;9.60;99.90
57058;DHT22;55017;52.848;6.748;2023-05-19T00:04:40;9.50;99.90
57058;DHT22;55017;52.848;6.748;2023-05-19T00:07:08;9.50;99.90
57058;DHT22;55017;52.848;6.748;2023-05-19T00:09:34;9.50;99.90
57058;DHT22;55017;52.848;6.748;2023-05-19T00:12:00;9.50;99.90
57058;DHT22;55017;52.848;6.748;2023-05-19T00:14:26;9.40;99.90
57058;DHT22;55017;52.848;6.748;2023-05-19T00:16:53;9.50;99.90
57058;DHT22;55017;52.848;6.748;2023-05-19T00:19:20;9.50;99.90
57058;DHT22;55017;52.848;6.748;2023-05-19T00:21:46;9.60;99.90
57058;DHT22;55017;52.848;6.748;2023-05-19T00:24:11;9.60;99.90
57058;DHT22;55017;52.848;6.748;2023-05-19T00:26:37;9.70;99.90
57058;DHT22;55017;52.848;6.748;2023-05-19T00:29:03;9.70;99.90
57058;DHT22;55017;52.848;6.748;2023-05-19T00:31:29;9.60;99.90
57058;DHT22;55017;52.848;6.748;2023-05-19T00:33:56;9.40;99.90
57058;DHT22;55017;52.848;6.748;2023-05-19T00:36:21;9.50;99.90
57058;DHT22;55017;52.848;6.748;2023-05-19T00:38:47;9.40;99.90
57058;DHT22;55017;52.848;6.748;2023-05-19T00:41:13;9.50;99.90
57058;DHT22;55017;52.848;6.748;2023-05-19T00:43:38;9.30;99.90
57058;DHT22;55017;52.848;6.748;2023-05-19T00:46:04;9.10;99.90
57058;DHT22;55017;52.848;6.748;2023-05-19T00:48:29;9.20;99.90
57058;DHT22;55017;52.848;6.748;2023-05-19T00:50:56;9.20;99.90
57058;DHT22;55017;52.848;6.748;2023-05-19T00:53:29;9.10;99.90
57058;DHT22;55017;52.848;6.748;2023-05-19T00:55:57;9.20;99.90
57058;DHT22;55017;52.848;6.748;2023-05-19T00:58:24;9.10;99.90
57058;DHT22;55017;52.848;6.748;2023-05-19T01:00:54;9.10;99.90
57058;DHT22;55017;52.848;6.748;2023-05-19T01:03:21;9.10;99.90
57058;DHT22;55017;52.848;6.748;2023-05-19T01:05:47;9.10;99.90
57058;DHT22;55017;52.848;6.748;2023-05-19T01:08:14;9.10;99.90
57058;DHT22;55017;52.848;6.748;2023-05-19T01:10:40;9.00;99.90
57058;DHT22;55017;52.848;6.748;2023-05-19T01:13:06;9.10;99.90
57058;DHT22;55017;52.848;6.748;2023-05-19T01:15:39;9.00;99.90
57058;DHT22;55017;52.848;6.748;2023-05-19T01:18:23;9.00;99.90
57058;DHT22;55017;52.848;6.748;2023-05-19T01:21:02;9.00;99.90
57058;DHT22;55017;52.848;6.748;2023-05-19T01:23:51;9.00;99.90
57058;DHT22;55017;52.848;6.748;2023-05-19T01:26:26;9.00;99.90
57058;DHT22;55017;52.848;6.748;2023-05-19T01:29:27;8.90;99.90
57058;DHT22;55017;52.848;6.748;2023-05-19T01:31:54;8.90;99.90
57058;DHT22;55017;52.848;6.748;2023-05-19T01:34:26;9.00;99.90
57058;DHT22;55017;52.848;6.748;2023-05-19T01:36:53;9.00;99.90
57058;DHT22;55017;52.848;6.748;2023-05-19T01:39:20;8.90;99.90
57058;DHT22;55017;52.848;6.748;2023-05-19T01:41:46;8.90;99.90
57058;DHT22;55017;52.848;6.748;2023-05-19T01:44:12;8.90;99.90
57058;DHT22;55017;52.848;6.748;2023-05-19T01:46:39;9.00;99.90
57058;DHT22;55017;52.848;6.748;2023-05-19T01:49:05;8.90;99.90
57058;DHT22;55017;52.848;6.748;2023-05-19T01:51:32;8.90;99.90
57058;DHT22;55017;52.848;6.748;2023-05-19T01:53:57;8.80;99.90
57058;DHT22;55017;52.848;6.748;2023-05-19T01:56:48;8.80;99.90
57058;DHT22;55017;52.848;6.748;2023-05-19T01:59:32;8.80;99.90
57058;DHT22;55017;52.848;6.748;2023-05-19T02:02:07;8.80;99.90
57058;DHT22;55017;52.848;6.748;2023-05-19T02:04:43;8.70;99.90
57058;DHT22;55017;52.848;6.748;2023-05-19T02:09:50;8.70;99.90
57058;DHT22;55017;52.848;6.748;2023-05-19T02:12:27;8.70;99.90
57058;DHT22;55017;52.848;6.748;2023-05-19T02:15:03;8.70;99.90
57058;DHT22;55017;52.848;6.748;2023-05-19T02:17:31;8.60;99.90
57058;DHT22;55017;52.848;6.748;2023-05-19T02:19:58;8.60;99.90
57058;DHT22;55017;52.848;6.748;2023-05-19T02:22:23;8.50;99.90
57058;DHT22;55017;52.848;6.748;2023-05-19T02:24:49;8.40;99.90
57058;DHT22;55017;52.848;6.748;2023-05-19T02:27:16;8.40;99.90
57058;DHT22;55017;52.848;6.748;2023-05-19T02:29:42;8.40;99.90
57058;DHT22;55017;52.848;6.748;2023-05-19T02:32:07;8.20;99.90
57058;DHT22;55017;52.848;6.748;2023-05-19T02:34:33;8.30;99.90
57058;DHT22;55017;52.848;6.748;2023-05-19T02:36:59;8.20;99.90
57058;DHT22;55017;52.848;6.748;2023-05-19T02:39:24;8.10;99.90
57058;DHT22;55017;52.848;6.748;2023-05-19T02:41:50;8.00;99.90
57058;DHT22;55017;52.848;6.748;2023-05-19T02:44:16;8.10;99.90
57058;DHT22;55017;52.848;6.748;2023-05-19T02:46:41;8.10;99.90
57058;DHT22;55017;52.848;6.748;2023-05-19T02:49:08;8.00;99.90
57058;DHT22;55017;52.848;6.748;2023-05-19T02:51:34;8.10;99.90
57058;DHT22;55017;52.848;6.748;2023-05-19T02:53:59;8.00;99.90
57058;DHT22;55017;52.848;6.748;2023-05-19T02:56:25;7.90;99.90
57058;DHT22;55017;52.848;6.748;2023-05-19T02:58:50;7.80;99.90
57058;DHT22;55017;52.848;6.748;2023-05-19T03:01:17;7.90;99.90
57058;DHT22;55017;52.848;6.748;2023-05-19T03:03:42;7.80;99.90
57058;DHT22;55017;52.848;6.748;2023-05-19T03:06:08;7.90;99.90
57058;DHT22;55017;52.848;6.748;2023-05-19T03:08:34;7.80;99.90
57058;DHT22;55017;52.848;6.748;2023-05-19T03:11:01;7.80;99.90
57058;DHT22;55017;52.848;6.748;2023-05-19T03:13:26;7.70;99.90
57058;DHT22;55017;52.848;6.748;2023-05-19T03:15:52;7.70;99.90
57058;DHT22;55017;52.848;6.748;2023-05-19T03:18:17;7.70;99.90
57058;DHT22;55017;52.848;6.748;2023-05-19T03:20:43;7.80;99.90
57058;DHT22;55017;52.848;6.748;2023-05-19T03:23:09;7.70;99.90
57058;DHT22;55017;52.848;6.748;2023-05-19T03:25:35;7.70;99.90
57058;DHT22;55017;52.848;6.748;2023-05-19T03:28:01;7.60;99.90
57058;DHT22;55017;52.848;6.748;2023-05-19T03:30:26;7.80;99.90
57058;DHT22;55017;52.848;6.748;2023-05-19T03:32:52;7.60;99.90
57058;DHT22;55017;52.848;6.748;2023-05-19T03:35:17;7.70;99.90
57058;DHT22;55017;52.848;6.748;2023-05-19T03:37:43;7.60;99.90
57058;DHT22;55017;52.848;6.748;2023-05-19T03:40:09;7.70;99.90
57058;DHT22;55017;52.848;6.748;2023-05-19T03:42:35;7.60;99.90
57058;DHT22;55017;52.848;6.748;2023-05-19T03:45:01;7.70;99.90
57058;DHT22;55017;52.848;6.748;2023-05-19T03:47:27;7.60;99.90
57058;DHT22;55017;52.848;6.748;2023-05-19T03:49:52;7.50;99.90
57058;DHT22;55017;52.848;6.748;2023-05-19T03:52:18;7.60;99.90
57058;DHT22;55017;52.848;6.748;2023-05-19T03:54:43;7.60;99.90
57058;DHT22;55017;52.848;6.748;2023-05-19T03:57:09;7.50;99.90
57058;DHT22;55017;52.848;6.748;2023-05-19T03:59:35;7.40;99.90
57058;DHT22;55017;52.848;6.748;2023-05-19T04:02:02;7.50;99.90
57058;DHT22;55017;52.848;6.748;2023-05-19T04:04:27;7.50;99.90
57058;DHT22;55017;52.848;6.748;2023-05-19T04:06:53;7.60;99.90
57058;DHT22;55017;52.848;6.748;2023-05-19T04:09:19;7.60;99.90
57058;DHT22;55017;52.848;6.748;2023-05-19T04:11:44;7.80;99.90
57058;DHT22;55017;52.848;6.748;2023-05-19T04:14:10;7.80;99.90
57058;DHT22;55017;52.848;6.748;2023-05-19T04:16:36;7.60;99.90
57058;DHT22;55017;52.848;6.748;2023-05-19T04:19:01;7.70;99.90
57058;DHT22;55017;52.848;6.748;2023-05-19T04:21:27;7.80;99.90
57058;DHT22;55017;52.848;6.748;2023-05-19T04:23:53;7.90;99.90
57058;DHT22;55017;52.848;6.748;2023-05-19T04:26:18;8.00;99.90
57058;DHT22;55017;52.848;6.748;2023-05-19T04:28:46;7.90;99.90
57058;DHT22;55017;52.848;6.748;2023-05-19T04:31:13;8.00;99.90
57058;DHT22;55017;52.848;6.748;2023-05-19T04:33:41;7.90;99.90
57058;DHT22;55017;52.848;6.748;2023-05-19T04:36:07;8.10;99.90
57058;DHT22;55017;52.848;6.748;2023-05-19T04:38:35;8.10;99.90
57058;DHT22;55017;52.848;6.748;2023-05-19T04:41:02;8.10;99.90
57058;DHT22;55017;52.848;6.748;2023-05-19T04:43:27;8.10;99.90
57058;DHT22;55017;52.848;6.748;2023-05-19T04:45:53;8.30;99.90
57058;DHT22;55017;52.848;6.748;2023-05-19T04:48:19;8.30;99.90
57058;DHT22;55017;52.848;6.748;2023-05-19T04:50:47;8.30;99.90
57058;DHT22;55017;52.848;6.748;2023-05-19T04:53:14;8.50;99.90
57058;DHT22;55017;52.848;6.748;2023-05-19T04:55:39;8.50;99.90
57058;DHT22;55017;52.848;6.748;2023-05-19T04:58:05;8.50;99.90
57058;DHT22;55017;52.848;6.748;2023-05-19T05:00:31;8.60;99.90
57058;DHT22;55017;52.848;6.748;2023-05-19T05:02:59;8.60;99.90
57058;DHT22;55017;52.848;6.748;2023-05-19T05:05:29;8.70;99.90
57058;DHT22;55017;52.848;6.748;2023-05-19T05:07:55;8.80;99.90
57058;DHT22;55017;52.848;6.748;2023-05-19T05:10:22;8.80;99.90
57058;DHT22;55017;52.848;6.748;2023-05-19T05:12:47;8.90;99.90
57058;DHT22;55017;52.848;6.748;2023-05-19T05:15:13;8.90;99.90
57058;DHT22;55017;52.848;6.748;2023-05-19T05:17:39;9.10;99.90
57058;DHT22;55017;52.848;6.748;2023-05-19T05:20:06;9.10;99.90
57058;DHT22;55017;52.848;6.748;2023-05-19T05:22:31;9.30;99.90
57058;DHT22;55017;52.848;6.748;2023-05-19T05:24:58;9.20;99.90
57058;DHT22;55017;52.848;6.748;2023-05-19T05:27:23;9.40;99.90
57058;DHT22;55017;52.848;6.748;2023-05-19T05:29:49;9.50;99.90
57058;DHT22;55017;52.848;6.748;2023-05-19T05:32:14;9.50;99.90
57058;DHT22;55017;52.848;6.748;2023-05-19T05:34:41;9.50;99.90
57058;DHT22;55017;52.848;6.748;2023-05-19T05:37:07;9.70;99.90
57058;DHT22;55017;52.848;6.748;2023-05-19T05:39:32;9.80;99.90
57058;DHT22;55017;52.848;6.748;2023-05-19T05:41:58;9.80;99.90
57058;DHT22;55017;52.848;6.748;2023-05-19T05:44:23;9.90;99.90
57058;DHT22;55017;52.848;6.748;2023-05-19T05:46:49;10.00;99.90
57058;DHT22;55017;52.848;6.748;2023-05-19T05:49:15;10.10;99.90
57058;DHT22;55017;52.848;6.748;2023-05-19T05:51:41;10.10;99.90
57058;DHT22;55017;52.848;6.748;2023-05-19T05:54:07;10.30;99.90
57058;DHT22;55017;52.848;6.748;2023-05-19T05:56:35;10.40;99.90
57058;DHT22;55017;52.848;6.748;2023-05-19T05:59:02;10.40;99.90
57058;DHT22;55017;52.848;6.748;2023-05-19T06:01:27;10.50;99.90
57058;DHT22;55017;52.848;6.748;2023-05-19T06:03:55;10.60;99.90
57058;DHT22;55017;52.848;6.748;2023-05-19T06:06:21;10.70;99.90
57058;DHT22;55017;52.848;6.748;2023-05-19T06:08:46;10.80;99.90
57058;DHT22;55017;52.848;6.748;2023-05-19T06:11:12;10.90;99.90
57058;DHT22;55017;52.848;6.748;2023-05-19T06:13:38;11.10;99.90
57058;DHT22;55017;52.848;6.748;2023-05-19T06:16:05;11.10;99.90
57058;DHT22;55017;52.848;6.748;2023-05-19T06:18:31;11.20;99.90
57058;DHT22;55017;52.848;6.748;2023-05-19T06:20:57;11.30;99.90
57058;DHT22;55017;52.848;6.748;2023-05-19T06:23:23;11.50;99.90
57058;DHT22;55017;52.848;6.748;2023-05-19T06:25:49;11.60;99.90
57058;DHT22;55017;52.848;6.748;2023-05-19T06:28:15;11.70;99.90
57058;DHT22;55017;52.848;6.748;2023-05-19T06:30:40;11.70;99.90
57058;DHT22;55017;52.848;6.748;2023-05-19T06:33:06;11.80;99.90
57058;DHT22;55017;52.848;6.748;2023-05-19T06:35:32;12.20;99.90
57058;DHT22;55017;52.848;6.748;2023-05-19T06:37:57;11.90;99.90
57058;DHT22;55017;52.848;6.748;2023-05-19T06:40:23;12.20;99.90
57058;DHT22;55017;52.848;6.748;2023-05-19T06:42:48;12.20;99.90
57058;DHT22;55017;52.848;6.748;2023-05-19T06:45:14;12.30;99.90
57058;DHT22;55017;52.848;6.748;2023-05-19T06:47:40;12.50;99.90
57058;DHT22;55017;52.848;6.748;2023-05-19T06:50:08;12.50;99.90
57058;DHT22;55017;52.848;6.748;2023-05-19T06:52:34;12.80;99.90
57058;DHT22;55017;52.848;6.748;2023-05-19T06:54:59;12.90;99.90
57058;DHT22;55017;52.848;6.748;2023-05-19T06:57:25;13.00;99.90
57058;DHT22;55017;52.848;6.748;2023-05-19T06:59:50;13.20;99.90
57058;DHT22;55017;52.848;6.748;2023-05-19T07:02:16;13.20;99.90
57058;DHT22;55017;52.848;6.748;2023-05-19T07:04:42;13.40;99.90
57058;DHT22;55017;52.848;6.748;2023-05-19T07:07:07;13.50;99.90
57058;DHT22;55017;52.848;6.748;2023-05-19T07:09:33;13.70;99.90
57058;DHT22;55017;52.848;6.748;2023-05-19T07:11:59;13.80;99.70
57058;DHT22;55017;52.848;6.748;2023-05-19T07:14:25;13.80;99.00
57058;DHT22;55017;52.848;6.748;2023-05-19T07:16:51;14.00;98.50
57058;DHT22;55017;52.848;6.748;2023-05-19T07:19:17;14.20;97.20
57058;DHT22;55017;52.848;6.748;2023-05-19T07:21:46;14.40;95.10
57058;DHT22;55017;52.848;6.748;2023-05-19T07:24:12;14.60;92.90
57058;DHT22;55017;52.848;6.748;2023-05-19T07:26:38;14.70;92.40
57058;DHT22;55017;52.848;6.748;2023-05-19T07:29:04;14.80;88.40
57058;DHT22;55017;52.848;6.748;2023-05-19T07:31:29;15.10;87.70
57058;DHT22;55017;52.848;6.748;2023-05-19T07:33:56;15.10;86.50
57058;DHT22;55017;52.848;6.748;2023-05-19T07:36:21;15.20;83.30
57058;DHT22;55017;52.848;6.748;2023-05-19T07:38:47;16.10;72.10
57058;DHT22;55017;52.848;6.748;2023-05-19T07:41:13;15.50;71.30
57058;DHT22;55017;52.848;6.748;2023-05-19T07:43:38;15.90;72.30
57058;DHT22;55017;52.848;6.748;2023-05-19T07:46:04;15.80;74.70
57058;DHT22;55017;52.848;6.748;2023-05-19T07:48:30;15.90;74.40
57058;DHT22;55017;52.848;6.748;2023-05-19T07:50:55;15.80;73.30
57058;DHT22;55017;52.848;6.748;2023-05-19T07:53:21;16.10;71.90
57058;DHT22;55017;52.848;6.748;2023-05-19T07:55:47;16.10;71.00
57058;DHT22;55017;52.848;6.748;2023-05-19T07:58:13;16.40;68.70
57058;DHT22;55017;52.848;6.748;2023-05-19T08:00:40;16.40;68.40
57058;DHT22;55017;52.848;6.748;2023-05-19T08:03:10;16.60;67.60
57058;DHT22;55017;52.848;6.748;2023-05-19T08:05:35;16.60;67.20
57058;DHT22;55017;52.848;6.748;2023-05-19T08:08:02;16.70;68.00
57058;DHT22;55017;52.848;6.748;2023-05-19T08:10:28;16.80;67.20
57058;DHT22;55017;52.848;6.748;2023-05-19T08:12:53;16.90;67.20
57058;DHT22;55017;52.848;6.748;2023-05-19T08:15:19;16.90;66.90
57058;DHT22;55017;52.848;6.748;2023-05-19T08:17:45;17.00;64.90
57058;DHT22;55017;52.848;6.748;2023-05-19T08:20:11;17.20;65.60
57058;DHT22;55017;52.848;6.748;2023-05-19T08:22:37;17.30;64.20
57058;DHT22;55017;52.848;6.748;2023-05-19T08:25:02;17.40;64.10
57058;DHT22;55017;52.848;6.748;2023-05-19T08:27:29;17.40;64.80
57058;DHT22;55017;52.848;6.748;2023-05-19T08:29:55;17.50;64.20
57058;DHT22;55017;52.848;6.748;2023-05-19T08:32:21;17.70;62.10
57058;DHT22;55017;52.848;6.748;2023-05-19T08:34:47;17.90;63.20
57058;DHT22;55017;52.848;6.748;2023-05-19T08:37:12;17.90;62.50
57058;DHT22;55017;52.848;6.748;2023-05-19T08:39:38;18.10;63.90
57058;DHT22;55017;52.848;6.748;2023-05-19T08:42:04;18.20;62.10
57058;DHT22;55017;52.848;6.748;2023-05-19T08:44:31;18.20;60.80
57058;DHT22;55017;52.848;6.748;2023-05-19T08:47:00;18.30;62.40
57058;DHT22;55017;52.848;6.748;2023-05-19T08:49:27;18.30;61.10
57058;DHT22;55017;52.848;6.748;2023-05-19T08:52:01;18.30;61.60
57058;DHT22;55017;52.848;6.748;2023-05-19T08:54:45;18.50;60.40
57058;DHT22;55017;52.848;6.748;2023-05-19T08:57:15;18.60;60.50
57058;DHT22;55017;52.848;6.748;2023-05-19T08:59:42;18.70;59.70
57058;DHT22;55017;52.848;6.748;2023-05-19T09:02:10;18.70;60.00
57058;DHT22;55017;52.848;6.748;2023-05-19T09:04:35;19.00;59.30
57058;DHT22;55017;52.848;6.748;2023-05-19T09:07:02;18.90;59.90
57058;DHT22;55017;52.848;6.748;2023-05-19T09:09:29;19.10;59.90
57058;DHT22;55017;52.848;6.748;2023-05-19T09:11:55;19.20;59.00
57058;DHT22;55017;52.848;6.748;2023-05-19T09:14:21;19.40;56.90
57058;DHT22;55017;52.848;6.748;2023-05-19T09:16:47;19.30;58.00
57058;DHT22;55017;52.848;6.748;2023-05-19T09:19:15;19.40;58.90
57058;DHT22;55017;52.848;6.748;2023-05-19T09:21:41;19.50;57.10
57058;DHT22;55017;52.848;6.748;2023-05-19T09:24:08;19.60;57.40
57058;DHT22;55017;52.848;6.748;2023-05-19T09:26:38;19.60;56.60
57058;DHT22;55017;52.848;6.748;2023-05-19T09:29:15;19.70;56.00
57058;DHT22;55017;52.848;6.748;2023-05-19T09:31:52;19.80;55.10
57058;DHT22;55017;52.848;6.748;2023-05-19T09:34:19;19.90;52.90
57058;DHT22;55017;52.848;6.748;2023-05-19T09:36:47;19.90;54.40
57058;DHT22;55017;52.848;6.748;2023-05-19T09:39:20;19.90;55.50
57058;DHT22;55017;52.848;6.748;2023-05-19T09:41:46;20.10;54.60
57058;DHT22;55017;52.848;6.748;2023-05-19T09:44:22;20.40;54.60
57058;DHT22;55017;52.848;6.748;2023-05-19T09:46:52;20.40;51.80
57058;DHT22;55017;52.848;6.748;2023-05-19T09:49:21;20.40;52.60
57058;DHT22;55017;52.848;6.748;2023-05-19T09:51:54;20.60;52.60
57058;DHT22;55017;52.848;6.748;2023-05-19T09:54:21;20.60;52.30
57058;DHT22;55017;52.848;6.748;2023-05-19T09:57:03;20.70;53.10
57058;DHT22;55017;52.848;6.748;2023-05-19T09:59:29;20.80;50.00
57058;DHT22;55017;52.848;6.748;2023-05-19T10:01:57;20.60;50.80
57058;DHT22;55017;52.848;6.748;2023-05-19T10:04:24;20.70;51.20
57058;DHT22;55017;52.848;6.748;2023-05-19T10:06:55;20.60;51.70
57058;DHT22;55017;52.848;6.748;2023-05-19T10:09:25;20.60;52.40
57058;DHT22;55017;52.848;6.748;2023-05-19T10:12:01;20.40;51.70
57058;DHT22;55017;52.848;6.748;2023-05-19T10:14:28;20.50;51.10
57058;DHT22;55017;52.848;6.748;2023-05-19T10:16:56;20.50;51.40
57058;DHT22;55017;52.848;6.748;2023-05-19T10:19:26;20.60;51.50
57058;DHT22;55017;52.848;6.748;2023-05-19T10:21:52;20.70;52.60
57058;DHT22;55017;52.848;6.748;2023-05-19T10:24:18;20.80;52.70
57058;DHT22;55017;52.848;6.748;2023-05-19T10:27:04;21.00;51.10
57058;DHT22;55017;52.848;6.748;2023-05-19T10:29:33;21.10;52.00
57058;DHT22;55017;52.848;6.748;2023-05-19T10:32:07;21.20;51.10
57058;DHT22;55017;52.848;6.748;2023-05-19T10:40:23;21.30;50.40
57058;DHT22;55017;52.848;6.748;2023-05-19T10:43:14;21.40;51.40
57058;DHT22;55017;52.848;6.748;2023-05-19T10:45:48;21.50;49.10
57058;DHT22;55017;52.848;6.748;2023-05-19T10:48:16;21.40;50.30
57058;DHT22;55017;52.848;6.748;2023-05-19T10:50:45;21.50;49.90
57058;DHT22;55017;52.848;6.748;2023-05-19T10:53:17;21.40;48.70
57058;DHT22;55017;52.848;6.748;2023-05-19T10:55:50;21.50;49.00
57058;DHT22;55017;52.848;6.748;2023-05-19T11:01:16;21.50;48.70
57058;DHT22;55017;52.848;6.748;2023-05-19T11:03:49;21.60;50.30
57058;DHT22;55017;52.848;6.748;2023-05-19T11:08:54;21.80;47.80
57058;DHT22;55017;52.848;6.748;2023-05-19T11:11:20;21.50;47.20
57058;DHT22;55017;52.848;6.748;2023-05-19T11:13:49;21.50;48.30
57058;DHT22;55017;52.848;6.748;2023-05-19T11:16:18;21.50;48.70
57058;DHT22;55017;52.848;6.748;2023-05-19T11:18:48;21.50;49.70
57058;DHT22;55017;52.848;6.748;2023-05-19T11:21:14;21.50;49.30
57058;DHT22;55017;52.848;6.748;2023-05-19T11:23:39;21.70;49.60
57058;DHT22;55017;52.848;6.748;2023-05-19T11:26:06;21.80;48.50
57058;DHT22;55017;52.848;6.748;2023-05-19T11:28:33;22.00;49.00
57058;DHT22;55017;52.848;6.748;2023-05-19T11:30:59;22.00;49.80
57058;DHT22;55017;52.848;6.748;2023-05-19T11:33:26;22.10;50.20
57058;DHT22;55017;52.848;6.748;2023-05-19T11:35:52;23.00;49.00
57058;DHT22;55017;52.848;6.748;2023-05-19T11:38:18;22.70;48.40
57058;DHT22;55017;52.848;6.748;2023-05-19T11:40:45;22.70;49.50
57058;DHT22;55017;52.848;6.748;2023-05-19T11:43:12;22.60;48.50
57058;DHT22;55017;52.848;6.748;2023-05-19T11:45:38;22.70;49.30
57058;DHT22;55017;52.848;6.748;2023-05-19T11:48:04;22.60;48.80
57058;DHT22;55017;52.848;6.748;2023-05-19T11:50:31;22.70;47.80
57058;DHT22;55017;52.848;6.748;2023-05-19T11:52:59;22.70;48.50
57058;DHT22;55017;52.848;6.748;2023-05-19T11:55:25;22.60;47.00
57058;DHT22;55017;52.848;6.748;2023-05-19T11:58:01;22.70;46.00
57058;DHT22;55017;52.848;6.748;2023-05-19T12:00:34;22.70;47.00
57058;DHT22;55017;52.848;6.748;2023-05-19T12:03:03;22.80;47.90
57058;DHT22;55017;52.848;6.748;2023-05-19T12:05:29;22.60;46.10
57058;DHT22;55017;52.848;6.748;2023-05-19T12:07:56;22.80;46.70
57058;DHT22;55017;52.848;6.748;2023-05-19T12:10:29;22.70;47.30
57058;DHT22;55017;52.848;6.748;2023-05-19T12:12:55;22.80;48.40
57058;DHT22;55017;52.848;6.748;2023-05-19T12:15:23;22.80;47.50
57058;DHT22;55017;52.848;6.748;2023-05-19T12:17:59;23.00;46.90
57058;DHT22;55017;52.848;6.748;2023-05-19T12:20:27;22.70;47.00
57058;DHT22;55017;52.848;6.748;2023-05-19T12:22:54;22.50;46.40
57058;DHT22;55017;52.848;6.748;2023-05-19T12:25:20;22.40;46.10
57058;DHT22;55017;52.848;6.748;2023-05-19T12:27:46;22.30;48.20
57058;DHT22;55017;52.848;6.748;2023-05-19T12:30:13;22.20;49.10
57058;DHT22;55017;52.848;6.748;2023-05-19T12:32:39;22.40;49.00
57058;DHT22;55017;52.848;6.748;2023-05-19T12:35:05;22.40;50.00
57058;DHT22;55017;52.848;6.748;2023-05-19T12:37:32;22.50;47.30
57058;DHT22;55017;52.848;6.748;2023-05-19T12:39:59;22.70;47.40
57058;DHT22;55017;52.848;6.748;2023-05-19T12:42:26;22.60;47.40
57058;DHT22;55017;52.848;6.748;2023-05-19T12:44:56;23.50;44.30
57058;DHT22;55017;52.848;6.748;2023-05-19T12:47:27;22.90;46.10
57058;DHT22;55017;52.848;6.748;2023-05-19T12:52:27;22.20;45.50
57058;DHT22;55017;52.848;6.748;2023-05-19T12:55:13;22.10;45.00
57058;DHT22;55017;52.848;6.748;2023-05-19T12:57:42;21.90;44.90
57058;DHT22;55017;52.848;6.748;2023-05-19T13:00:17;22.00;48.30
57058;DHT22;55017;52.848;6.748;2023-05-19T13:03:04;22.10;46.60
57058;DHT22;55017;52.848;6.748;2023-05-19T13:05:35;22.40;46.00
57058;DHT22;55017;52.848;6.748;2023-05-19T13:08:03;22.70;47.00
57058;DHT22;55017;52.848;6.748;2023-05-19T13:10:29;23.80;42.30
57058;DHT22;55017;52.848;6.748;2023-05-19T13:12:56;23.50;45.10
57058;DHT22;55017;52.848;6.748;2023-05-19T13:15:24;23.70;44.60
57058;DHT22;55017;52.848;6.748;2023-05-19T13:17:51;24.70;41.20
57058;DHT22;55017;52.848;6.748;2023-05-19T13:20:17;24.10;42.40
57058;DHT22;55017;52.848;6.748;2023-05-19T13:22:43;23.80;43.80
57058;DHT22;55017;52.848;6.748;2023-05-19T13:25:09;23.70;44.10
57058;DHT22;55017;52.848;6.748;2023-05-19T13:27:34;23.10;43.40
57058;DHT22;55017;52.848;6.748;2023-05-19T13:30:00;22.60;44.20
57058;DHT22;55017;52.848;6.748;2023-05-19T13:32:26;22.40;45.40
57058;DHT22;55017;52.848;6.748;2023-05-19T13:34:51;22.30;45.80
57058;DHT22;55017;52.848;6.748;2023-05-19T13:37:17;22.50;46.00
57058;DHT22;55017;52.848;6.748;2023-05-19T13:39:43;22.50;47.50
57058;DHT22;55017;52.848;6.748;2023-05-19T13:42:08;22.60;48.30
57058;DHT22;55017;52.848;6.748;2023-05-19T13:44:35;22.80;48.80
57058;DHT22;55017;52.848;6.748;2023-05-19T13:47:01;22.80;47.80
57058;DHT22;55017;52.848;6.748;2023-05-19T13:49:26;22.40;48.10
57058;DHT22;55017;52.848;6.748;2023-05-19T13:51:55;22.10;48.20
57058;DHT22;55017;52.848;6.748;2023-05-19T13:54:22;22.10;49.00
57058;DHT22;55017;52.848;6.748;2023-05-19T13:56:48;22.20;49.50
57058;DHT22;55017;52.848;6.748;2023-05-19T13:59:14;22.60;48.20
57058;DHT22;55017;52.848;6.748;2023-05-19T14:01:41;22.60;46.50
57058;DHT22;55017;52.848;6.748;2023-05-19T14:04:08;22.50;46.20
57058;DHT22;55017;52.848;6.748;2023-05-19T14:06:34;22.50;46.50
57058;DHT22;55017;52.848;6.748;2023-05-19T14:09:01;22.30;46.80
57058;DHT22;55017;52.848;6.748;2023-05-19T14:11:27;22.10;45.90
57058;DHT22;55017;52.848;6.748;2023-05-19T14:13:52;22.00;46.40
57058;DHT22;55017;52.848;6.748;2023-05-19T14:16:18;22.10;45.70
57058;DHT22;55017;52.848;6.748;2023-05-19T14:18:44;22.30;46.30
57058;DHT22;55017;52.848;6.748;2023-05-19T14:21:10;22.60;45.90
57058;DHT22;55017;52.848;6.748;2023-05-19T14:23:35;23.00;45.60
57058;DHT22;55017;52.848;6.748;2023-05-19T14:26:01;23.20;45.40
57058;DHT22;55017;52.848;6.748;2023-05-19T14:28:26;23.40;44.60
57058;DHT22;55017;52.848;6.748;2023-05-19T14:30:52;23.10;44.00
57058;DHT22;55017;52.848;6.748;2023-05-19T14:33:19;23.00;44.20
57058;DHT22;55017;52.848;6.748;2023-05-19T14:35:45;22.80;44.80
57058;DHT22;55017;52.848;6.748;2023-05-19T14:38:11;22.50;45.50
57058;DHT22;55017;52.848;6.748;2023-05-19T14:40:37;22.50;45.90
57058;DHT22;55017;52.848;6.748;2023-05-19T14:43:08;23.60;43.70
57058;DHT22;55017;52.848;6.748;2023-05-19T14:45:34;23.10;45.10
57058;DHT22;55017;52.848;6.748;2023-05-19T14:48:00;23.30;45.50
57058;DHT22;55017;52.848;6.748;2023-05-19T14:50:26;22.80;44.80
57058;DHT22;55017;52.848;6.748;2023-05-19T14:52:52;23.50;42.50
57058;DHT22;55017;52.848;6.748;2023-05-19T14:55:17;22.80;43.40
57058;DHT22;55017;52.848;6.748;2023-05-19T14:57:43;22.50;44.70
57058;DHT22;55017;52.848;6.748;2023-05-19T15:00:09;22.10;45.50
57058;DHT22;55017;52.848;6.748;2023-05-19T15:02:35;21.80;45.30
57058;DHT22;55017;52.848;6.748;2023-05-19T15:05:01;21.70;45.20
57058;DHT22;55017;52.848;6.748;2023-05-19T15:07:26;21.70;46.10
57058;DHT22;55017;52.848;6.748;2023-05-19T15:09:52;21.90;46.40
57058;DHT22;55017;52.848;6.748;2023-05-19T15:12:18;22.00;45.30
57058;DHT22;55017;52.848;6.748;2023-05-19T15:14:44;22.20;45.70
57058;DHT22;55017;52.848;6.748;2023-05-19T15:17:09;22.20;44.80
57058;DHT22;55017;52.848;6.748;2023-05-19T15:19:35;22.10;44.70
57058;DHT22;55017;52.848;6.748;2023-05-19T15:22:01;22.10;44.80
57058;DHT22;55017;52.848;6.748;2023-05-19T15:24:26;21.80;45.50
57058;DHT22;55017;52.848;6.748;2023-05-19T15:26:52;21.70;45.70
57058;DHT22;55017;52.848;6.748;2023-05-19T15:29:18;21.40;45.00
57058;DHT22;55017;52.848;6.748;2023-05-19T15:31:44;21.20;45.80
57058;DHT22;55017;52.848;6.748;2023-05-19T15:34:09;22.00;44.00
57058;DHT22;55017;52.848;6.748;2023-05-19T15:36:35;21.70;45.10
57058;DHT22;55017;52.848;6.748;2023-05-19T15:39:00;21.90;46.10
57058;DHT22;55017;52.848;6.748;2023-05-19T15:41:27;21.90;46.70
57058;DHT22;55017;52.848;6.748;2023-05-19T15:43:53;21.90;45.90
57058;DHT22;55017;52.848;6.748;2023-05-19T15:46:19;21.80;45.40
57058;DHT22;55017;52.848;6.748;2023-05-19T15:48:44;21.70;45.90
57058;DHT22;55017;52.848;6.748;2023-05-19T15:51:10;21.50;46.40
57058;DHT22;55017;52.848;6.748;2023-05-19T15:53:36;21.40;46.10
57058;DHT22;55017;52.848;6.748;2023-05-19T15:56:02;21.30;47.10